createdAt,value
2016-09-14T00:00:26.653Z,20.42
2016-09-14T00:01:37.858Z,20.42
2016-09-14T00:02:48.865Z,20.42
2016-09-14T00:03:59.873Z,20.34
2016-09-14T00:05:10.887Z,20.34
2016-09-14T00:06:21.894Z,20.34
2016-09-14T00:07:32.899Z,20.41
2016-09-14T00:08:44.101Z,20.35
2016-09-14T00:09:55.104Z,20.35
2016-09-14T00:11:06.104Z,20.35
2016-09-14T00:12:17.108Z,20.29
2016-09-14T00:13:28.112Z,20.35
2016-09-14T00:14:39.116Z,20.35
2016-09-14T00:15:50.729Z,20.29
2016-09-14T00:17:01.732Z,20.25
2016-09-14T00:18:12.737Z,20.26
2016-09-14T00:19:23.946Z,20.38
2016-09-14T00:20:35.155Z,20.26
2016-09-14T00:21:46.358Z,20.29
2016-09-14T00:22:57.366Z,20.19
2016-09-14T00:24:08.367Z,20.2
2016-09-14T00:25:19.575Z,20.15
2016-09-14T00:26:30.583Z,20.16
2016-09-14T00:27:41.586Z,20.16
2016-09-14T00:28:52.600Z,20.12
2016-09-14T00:30:03.810Z,20.08
2016-09-14T00:31:14.829Z,20.1
2016-09-14T00:32:25.826Z,20
2016-09-14T00:33:36.819Z,20.02
2016-09-14T00:34:48.039Z,20.01
2016-09-14T00:35:59.050Z,19.9
2016-09-14T00:37:10.051Z,19.93
2016-09-14T00:38:21.247Z,19.93
2016-09-14T00:39:32.252Z,19.93
2016-09-14T00:40:43.251Z,19.97
2016-09-14T00:41:54.256Z,19.98
2016-09-14T00:43:05.264Z,19.93
2016-09-14T00:44:16.507Z,19.92
2016-09-14T00:45:27.520Z,19.92
2016-09-14T00:46:38.521Z,20.01
2016-09-14T00:47:49.519Z,19.89
2016-09-14T00:49:00.520Z,19.93
2016-09-14T00:50:11.738Z,19.93
2016-09-14T00:51:22.740Z,19.92
2016-09-14T00:52:33.795Z,19.87
2016-09-14T00:53:44.798Z,19.93
2016-09-14T00:54:55.805Z,19.86
2016-09-14T00:56:06.805Z,19.92
2016-09-14T00:57:18.002Z,19.8
2016-09-14T00:58:29.009Z,19.86
2016-09-14T00:59:40.030Z,19.75
2016-09-14T01:00:51.025Z,19.82
2016-09-14T01:02:02.035Z,19.82
2016-09-14T01:03:13.036Z,19.83
2016-09-14T01:04:24.052Z,19.75
2016-09-14T01:05:35.065Z,19.79
2016-09-14T01:06:46.077Z,19.74
2016-09-14T01:07:57.078Z,19.78
2016-09-14T01:09:08.081Z,19.71
2016-09-14T01:10:19.289Z,19.64
2016-09-14T01:11:30.296Z,19.68
2016-09-14T01:12:41.303Z,19.79
2016-09-14T01:13:52.304Z,19.63
2016-09-14T01:15:03.304Z,19.67
2016-09-14T01:16:14.311Z,19.65
2016-09-14T01:17:25.312Z,19.68
2016-09-14T01:18:36.520Z,19.71
2016-09-14T01:19:47.519Z,19.68
2016-09-14T01:20:58.519Z,19.64
2016-09-14T01:22:09.531Z,19.65
2016-09-14T01:23:20.532Z,19.74
2016-09-14T01:24:31.541Z,19.68
2016-09-14T01:25:42.550Z,19.67
2016-09-14T01:26:53.554Z,19.64
2016-09-14T01:28:04.555Z,19.67
2016-09-14T01:29:15.961Z,19.55
2016-09-14T01:30:26.966Z,19.64
2016-09-14T01:31:38.172Z,19.56
2016-09-14T01:32:49.183Z,19.56
2016-09-14T01:34:00.189Z,19.61
2016-09-14T01:35:11.201Z,19.56
2016-09-14T01:36:22.207Z,19.6
2016-09-14T01:37:33.424Z,19.61
2016-09-14T01:38:44.441Z,19.63
2016-09-14T01:39:55.465Z,19.57
2016-09-14T01:41:06.480Z,19.47
2016-09-14T01:42:17.482Z,19.53
2016-09-14T01:43:28.489Z,19.49
2016-09-14T01:44:39.495Z,19.45
2016-09-14T01:45:50.504Z,19.46
2016-09-14T01:47:01.519Z,19.47
2016-09-14T01:48:12.526Z,19.4
2016-09-14T01:49:23.527Z,19.43
2016-09-14T01:50:34.727Z,19.35
2016-09-14T01:51:45.726Z,19.31
2016-09-14T01:52:56.780Z,19.32
2016-09-14T01:54:07.800Z,19.24
2016-09-14T01:55:18.807Z,19.2
2016-09-14T01:56:29.818Z,19.25
2016-09-14T01:57:40.818Z,19.34
2016-09-14T01:58:51.842Z,19.27
2016-09-14T02:00:02.848Z,19.28
2016-09-14T02:01:13.867Z,19.28
2016-09-14T02:02:24.869Z,19.23
2016-09-14T02:03:35.873Z,19.24
2016-09-14T02:04:47.074Z,19.2
2016-09-14T02:05:58.280Z,19.25
2016-09-14T02:07:09.494Z,19.23
2016-09-14T02:08:20.501Z,19.28
2016-09-14T02:09:31.506Z,19.1
2016-09-14T02:10:42.506Z,19.12
2016-09-14T02:11:53.568Z,19.2
2016-09-14T02:13:04.568Z,19.15
2016-09-14T02:14:15.569Z,19.1
2016-09-14T02:15:26.579Z,19.13
2016-09-14T02:16:37.580Z,19.12
2016-09-14T02:17:48.578Z,19.06
2016-09-14T02:18:59.576Z,19.02
2016-09-14T02:20:10.580Z,19.13
2016-09-14T02:21:21.588Z,19.1
2016-09-14T02:22:32.596Z,18.99
2016-09-14T02:23:43.607Z,18.96
2016-09-14T02:24:54.602Z,18.96
2016-09-14T02:26:05.808Z,19.07
2016-09-14T02:27:16.813Z,19.07
2016-09-14T02:28:27.817Z,18.96
2016-09-14T02:29:39.014Z,19.06
2016-09-14T02:30:50.018Z,18.97
2016-09-14T02:32:01.023Z,18.99
2016-09-14T02:33:12.035Z,18.96
2016-09-14T02:34:23.044Z,18.97
2016-09-14T02:35:34.048Z,18.9
2016-09-14T02:36:45.057Z,19.02
2016-09-14T02:37:56.063Z,18.93
2016-09-14T02:39:07.056Z,18.94
2016-09-14T02:40:18.064Z,18.96
2016-09-14T02:41:29.276Z,18.91
2016-09-14T02:42:40.278Z,18.84
2016-09-14T02:43:51.275Z,18.76
2016-09-14T02:45:02.280Z,18.96
2016-09-14T02:46:13.281Z,18.91
2016-09-14T02:47:24.291Z,18.89
2016-09-14T02:48:35.304Z,18.76
2016-09-14T02:49:46.912Z,18.81
2016-09-14T02:50:57.909Z,18.89
2016-09-14T02:52:09.318Z,18.79
2016-09-14T02:53:20.370Z,18.81
2016-09-14T02:54:31.381Z,18.78
2016-09-14T02:55:42.586Z,18.79
2016-09-14T02:56:53.587Z,18.78
2016-09-14T02:58:04.998Z,18.75
2016-09-14T02:59:15.993Z,18.72
2016-09-14T03:00:27.009Z,18.76
2016-09-14T03:01:38.216Z,18.69
2016-09-14T03:02:49.214Z,18.72
2016-09-14T03:04:00.217Z,18.72
2016-09-14T03:05:11.217Z,18.71
2016-09-14T03:06:22.221Z,18.68
2016-09-14T03:07:33.220Z,18.69
2016-09-14T03:08:44.417Z,18.65
2016-09-14T03:09:55.424Z,18.68
2016-09-14T03:11:06.426Z,18.68
2016-09-14T03:12:17.430Z,18.63
2016-09-14T03:13:28.634Z,18.61
2016-09-14T03:14:39.640Z,18.6
2016-09-14T03:15:50.852Z,18.59
2016-09-14T03:17:01.859Z,18.6
2016-09-14T03:18:13.063Z,18.57
2016-09-14T03:19:24.060Z,18.56
2016-09-14T03:20:35.072Z,18.54
2016-09-14T03:21:46.081Z,18.5
2016-09-14T03:22:57.298Z,18.47
2016-09-14T03:24:08.508Z,18.56
2016-09-14T03:25:19.537Z,18.47
2016-09-14T03:26:30.541Z,18.41
2016-09-14T03:27:41.544Z,18.38
2016-09-14T03:28:52.552Z,18.47
2016-09-14T03:30:03.558Z,18.44
2016-09-14T03:31:14.764Z,18.34
2016-09-14T03:32:25.778Z,18.38
2016-09-14T03:33:36.783Z,18.31
2016-09-14T03:34:47.788Z,18.31
2016-09-14T03:35:58.801Z,18.45
2016-09-14T03:37:10.021Z,18.35
2016-09-14T03:38:21.028Z,18.29
2016-09-14T03:39:32.039Z,18.34
2016-09-14T03:40:43.043Z,18.31
2016-09-14T03:41:54.049Z,18.32
2016-09-14T03:43:05.051Z,18.24
2016-09-14T03:44:16.064Z,18.21
2016-09-14T03:45:27.064Z,18.19
2016-09-14T03:46:38.068Z,18.16
2016-09-14T03:47:49.074Z,18.24
2016-09-14T03:49:00.279Z,18.21
2016-09-14T03:50:11.282Z,18.16
2016-09-14T03:51:22.289Z,18.21
2016-09-14T03:52:33.298Z,18.23
2016-09-14T03:53:44.344Z,18.19
2016-09-14T03:54:55.352Z,18.17
2016-09-14T03:56:06.357Z,18.21
2016-09-14T03:57:17.364Z,18.16
2016-09-14T03:58:28.366Z,18.21
2016-09-14T03:59:39.370Z,18.06
2016-09-14T04:00:50.383Z,18.14
2016-09-14T04:02:01.588Z,18.05
2016-09-14T04:03:12.591Z,18.11
2016-09-14T04:04:23.799Z,18.06
2016-09-14T04:05:35.001Z,18.14
2016-09-14T04:06:46.202Z,18.14
2016-09-14T04:07:57.220Z,18.1
2016-09-14T04:09:08.252Z,18.03
2016-09-14T04:10:19.261Z,18.13
2016-09-14T04:11:30.261Z,18.11
2016-09-14T04:13:52.122Z,18.05
2016-09-14T04:15:03.137Z,18.05
2016-09-14T04:16:14.137Z,18.1
2016-09-14T04:17:25.153Z,18.06
2016-09-14T04:18:36.162Z,18.05
2016-09-14T04:19:47.361Z,18.01
2016-09-14T04:20:58.566Z,17.98
2016-09-14T04:22:09.571Z,18.01
2016-09-14T04:23:20.573Z,18.01
2016-09-14T04:24:31.583Z,17.99
2016-09-14T04:25:42.780Z,18.03
2016-09-14T04:26:53.788Z,18.02
2016-09-14T04:28:04.791Z,18.02
2016-09-14T04:29:15.791Z,18.02
2016-09-14T04:30:26.812Z,17.95
2016-09-14T04:31:37.815Z,17.9
2016-09-14T04:32:48.824Z,17.87
2016-09-14T04:33:59.828Z,17.88
2016-09-14T04:35:10.839Z,17.87
2016-09-14T04:36:22.253Z,18.03
2016-09-14T04:37:33.260Z,17.99
2016-09-14T04:38:44.263Z,17.88
2016-09-14T04:39:55.264Z,17.87
2016-09-14T04:41:06.279Z,17.94
2016-09-14T04:42:17.282Z,17.96
2016-09-14T04:43:28.298Z,17.92
2016-09-14T04:44:39.291Z,17.9
2016-09-14T04:45:50.309Z,17.86
2016-09-14T04:47:01.312Z,17.8
2016-09-14T04:48:12.320Z,17.86
2016-09-14T04:49:23.333Z,17.8
2016-09-14T04:50:34.538Z,17.81
2016-09-14T04:51:45.535Z,17.77
2016-09-14T04:52:56.742Z,17.88
2016-09-14T04:54:07.998Z,17.92
2016-09-14T04:55:19.004Z,17.84
2016-09-14T04:56:30.017Z,17.87
2016-09-14T04:57:41.217Z,17.81
2016-09-14T04:58:52.223Z,17.74
2016-09-14T05:00:03.217Z,17.76
2016-09-14T05:01:14.219Z,17.71
2016-09-14T05:02:25.224Z,17.73
2016-09-14T05:03:36.240Z,17.73
2016-09-14T05:04:47.244Z,17.77
2016-09-14T05:05:58.251Z,17.71
2016-09-14T05:07:09.256Z,17.73
2016-09-14T05:08:20.251Z,17.73
2016-09-14T05:09:31.251Z,17.69
2016-09-14T05:10:42.250Z,17.71
2016-09-14T05:11:53.461Z,17.77
2016-09-14T05:13:04.465Z,17.68
2016-09-14T05:14:15.460Z,17.68
2016-09-14T05:15:26.458Z,17.69
2016-09-14T05:16:37.452Z,17.66
2016-09-14T05:17:48.452Z,17.69
2016-09-14T05:18:59.460Z,17.73
2016-09-14T05:20:10.457Z,17.76
2016-09-14T05:21:21.454Z,17.71
2016-09-14T05:22:32.466Z,17.71
2016-09-14T05:23:43.472Z,17.68
2016-09-14T05:24:54.480Z,17.79
2016-09-14T05:26:05.480Z,17.66
2016-09-14T05:27:16.485Z,17.66
2016-09-14T05:28:27.489Z,17.68
2016-09-14T05:29:38.490Z,17.68
2016-09-14T05:30:49.494Z,17.71
2016-09-14T05:32:00.510Z,17.73
2016-09-14T05:33:11.514Z,17.68
2016-09-14T05:34:22.715Z,17.71
2016-09-14T05:35:33.930Z,17.66
2016-09-14T05:36:44.926Z,17.69
2016-09-14T05:37:56.127Z,17.73
2016-09-14T05:39:07.126Z,17.77
2016-09-14T05:40:18.321Z,17.83
2016-09-14T05:41:29.325Z,17.74
2016-09-14T05:42:40.331Z,17.84
2016-09-14T05:43:51.332Z,17.81
2016-09-14T05:45:02.347Z,17.87
2016-09-14T05:46:13.345Z,17.81
2016-09-14T05:47:24.361Z,17.95
2016-09-14T05:48:35.364Z,17.92
2016-09-14T05:49:46.377Z,17.86
2016-09-14T05:50:57.387Z,17.95
2016-09-14T05:52:08.593Z,18.01
2016-09-14T05:53:19.601Z,18.05
2016-09-14T05:54:30.850Z,18.03
2016-09-14T05:55:41.853Z,18.03
2016-09-14T05:56:52.862Z,18.08
2016-09-14T05:58:04.069Z,18.14
2016-09-14T05:59:15.282Z,18.05
2016-09-14T06:00:26.278Z,18.1
2016-09-14T06:01:37.278Z,18.17
2016-09-14T06:02:48.276Z,18.14
2016-09-14T06:03:59.290Z,18.16
2016-09-14T06:05:10.287Z,18.14
2016-09-14T06:06:21.294Z,18.24
2016-09-14T06:07:32.302Z,18.19
2016-09-14T06:08:43.300Z,18.31
2016-09-14T06:09:54.305Z,18.31
2016-09-14T06:11:05.305Z,18.35
2016-09-14T06:12:16.302Z,18.34
2016-09-14T06:13:27.308Z,18.47
2016-09-14T06:14:38.315Z,18.41
2016-09-14T06:15:49.316Z,18.47
2016-09-14T06:17:00.519Z,18.47
2016-09-14T06:18:11.516Z,18.51
2016-09-14T06:19:22.513Z,18.53
2016-09-14T06:20:33.520Z,18.57
2016-09-14T06:21:44.525Z,18.57
2016-09-14T06:22:55.542Z,18.61
2016-09-14T06:24:06.542Z,18.66
2016-09-14T06:25:17.544Z,18.68
2016-09-14T06:26:28.535Z,18.75
2016-09-14T06:27:39.535Z,18.69
2016-09-14T06:28:50.541Z,18.79
2016-09-14T06:30:01.549Z,18.84
2016-09-14T06:31:12.552Z,18.89
2016-09-14T06:32:23.753Z,18.91
2016-09-14T06:33:34.765Z,18.94
2016-09-14T06:34:45.766Z,18.99
2016-09-14T06:35:56.769Z,19.13
2016-09-14T06:37:07.973Z,19.15
2016-09-14T06:38:18.972Z,19.19
2016-09-14T06:39:29.980Z,19.3
2016-09-14T06:40:40.984Z,19.43
2016-09-14T06:41:52.001Z,19.45
2016-09-14T06:43:03.011Z,19.65
2016-09-14T06:44:14.016Z,19.95
2016-09-14T06:45:25.019Z,20.26
2016-09-14T06:46:36.440Z,20.82
2016-09-14T06:47:47.444Z,21.51
2016-09-14T06:48:58.650Z,21.99
2016-09-14T06:50:09.658Z,22.51
2016-09-14T06:51:20.672Z,22.94
2016-09-14T06:52:31.885Z,23.47
2016-09-14T06:53:42.889Z,23.7
2016-09-14T06:54:53.942Z,24.03
2016-09-14T06:56:05.142Z,24.55
2016-09-14T06:57:16.147Z,24.83
2016-09-14T06:58:27.154Z,25.12
2016-09-14T06:59:38.158Z,25.49
2016-09-14T07:00:49.169Z,25.84
2016-09-14T07:02:00.175Z,25.99
2016-09-14T07:03:11.212Z,26.26
2016-09-14T07:04:22.428Z,26.38
2016-09-14T07:05:33.442Z,26.42
2016-09-14T07:06:44.455Z,26.45
2016-09-14T07:07:55.672Z,26.42
2016-09-14T07:09:06.685Z,26.56
2016-09-14T07:10:17.703Z,26.5
2016-09-14T07:11:28.712Z,26.56
2016-09-14T07:12:39.732Z,26.54
2016-09-14T07:13:50.752Z,26.67
2016-09-14T07:15:01.757Z,26.82
2016-09-14T07:16:12.766Z,26.81
2016-09-14T07:17:23.988Z,26.84
2016-09-14T07:18:35.005Z,26.78
2016-09-14T07:19:46.025Z,26.44
2016-09-14T07:20:57.240Z,26.17
2016-09-14T07:22:08.264Z,26.01
2016-09-14T07:23:19.285Z,26.17
2016-09-14T07:24:30.300Z,26.3
2016-09-14T07:25:41.318Z,26.68
2016-09-14T07:26:52.531Z,26.89
2016-09-14T07:28:03.551Z,27.05
2016-09-14T07:29:14.568Z,27.01
2016-09-14T07:30:25.782Z,27.04
2016-09-14T07:31:36.798Z,27
2016-09-14T07:32:47.817Z,26.89
2016-09-14T07:33:59.032Z,26.76
2016-09-14T07:35:10.055Z,26.97
2016-09-14T07:36:21.064Z,27.12
2016-09-14T07:37:32.282Z,27.41
2016-09-14T07:38:43.300Z,27.46
2016-09-14T07:39:54.313Z,27.53
2016-09-14T07:41:05.533Z,27.74
2016-09-14T07:42:16.550Z,28.02
2016-09-14T07:43:27.573Z,28.14
2016-09-14T07:44:38.594Z,28.46
2016-09-14T07:45:49.616Z,28.7
2016-09-14T07:47:00.638Z,28.85
2016-09-14T07:48:11.661Z,28.83
2016-09-14T07:49:22.679Z,28.9
2016-09-14T07:50:33.697Z,29.01
2016-09-14T07:51:44.712Z,29.17
2016-09-14T07:52:55.732Z,29.47
2016-09-14T07:54:06.758Z,29.88
2016-09-14T07:55:17.833Z,30.04
2016-09-14T07:56:29.054Z,30.11
2016-09-14T07:57:40.074Z,30.16
2016-09-14T07:58:51.087Z,30.29
2016-09-14T08:00:02.313Z,30.25
2016-09-14T08:01:13.333Z,30.67
2016-09-14T08:02:24.356Z,30.71
2016-09-14T08:03:35.393Z,30.99
2016-09-14T08:04:46.404Z,31.18
2016-09-14T08:05:57.824Z,31.19
2016-09-14T08:07:08.842Z,31.26
2016-09-14T08:08:20.074Z,31.45
2016-09-14T08:09:31.095Z,31.59
2016-09-14T08:10:42.340Z,31.53
2016-09-14T08:11:53.366Z,31.43
2016-09-14T08:13:04.389Z,31.19
2016-09-14T08:14:15.424Z,31.07
2016-09-14T08:15:26.464Z,31.07
2016-09-14T08:16:37.693Z,31.04
2016-09-14T08:17:48.715Z,30.91
2016-09-14T08:18:59.948Z,30.94
2016-09-14T08:20:10.979Z,31.01
2016-09-14T08:21:22.013Z,31.19
2016-09-14T08:22:33.029Z,31.19
2016-09-14T08:23:44.050Z,31.23
2016-09-14T08:24:55.068Z,31.43
2016-09-14T08:26:06.090Z,31.45
2016-09-14T08:27:17.115Z,31.5
2016-09-14T08:28:28.153Z,31.47
2016-09-14T08:29:39.164Z,31.44
2016-09-14T08:30:50.393Z,31.43
2016-09-14T08:32:01.420Z,31.43
2016-09-14T08:33:12.442Z,31.41
2016-09-14T08:34:23.463Z,31.71
2016-09-14T08:35:34.481Z,32.06
2016-09-14T08:36:45.702Z,32.16
2016-09-14T08:37:56.729Z,32.24
2016-09-14T08:39:07.749Z,32.25
2016-09-14T08:40:18.767Z,32.28
2016-09-14T08:41:29.791Z,32.01
2016-09-14T08:42:41.014Z,31.82
2016-09-14T08:43:52.054Z,31.63
2016-09-14T08:45:03.072Z,31.41
2016-09-14T08:46:14.094Z,31.22
2016-09-14T08:47:25.122Z,31.25
2016-09-14T08:48:36.153Z,31.18
2016-09-14T08:49:47.183Z,31.21
2016-09-14T08:50:58.210Z,31.26
2016-09-14T08:52:09.234Z,31.23
2016-09-14T08:53:20.266Z,31.41
2016-09-14T08:54:31.288Z,31.58
2016-09-14T08:55:42.558Z,31.86
2016-09-14T08:56:53.596Z,32.23
2016-09-14T08:58:04.821Z,32.32
2016-09-14T08:59:15.837Z,32.65
2016-09-14T09:00:27.065Z,32.65
2016-09-14T09:01:38.083Z,32.59
2016-09-14T09:02:49.106Z,32.46
2016-09-14T09:04:00.137Z,32.37
2016-09-14T09:05:11.162Z,32.31
2016-09-14T09:06:22.182Z,32.15
2016-09-14T09:07:33.222Z,32.15
2016-09-14T09:08:44.248Z,32.37
2016-09-14T09:09:55.282Z,32.42
2016-09-14T09:11:06.312Z,32.49
2016-09-14T09:12:17.538Z,32.49
2016-09-14T09:13:28.554Z,32.54
2016-09-14T09:14:39.592Z,32.68
2016-09-14T09:15:50.619Z,32.69
2016-09-14T09:17:01.648Z,32.62
2016-09-14T09:18:12.683Z,32.87
2016-09-14T09:19:23.710Z,33.29
2016-09-14T09:20:34.940Z,33.59
2016-09-14T09:21:45.979Z,33.56
2016-09-14T09:22:57.006Z,33.59
2016-09-14T09:24:08.236Z,33.66
2016-09-14T09:25:19.267Z,33.77
2016-09-14T09:26:30.300Z,34.1
2016-09-14T09:27:41.526Z,34.27
2016-09-14T09:28:52.559Z,34.39
2016-09-14T09:30:03.602Z,34.43
2016-09-14T09:31:14.626Z,34.66
2016-09-14T09:32:25.648Z,34.59
2016-09-14T09:33:36.678Z,34.66
2016-09-14T09:34:47.916Z,34.87
2016-09-14T09:35:58.946Z,34.86
2016-09-14T09:37:09.975Z,34.72
2016-09-14T09:38:21.648Z,34.66
2016-09-14T09:39:32.675Z,34.67
2016-09-14T09:40:43.704Z,34.64
2016-09-14T09:41:54.740Z,34.36
2016-09-14T09:43:05.766Z,34.33
2016-09-14T09:44:16.798Z,34.46
2016-09-14T09:45:27.824Z,34.69
2016-09-14T09:46:38.873Z,34.83
2016-09-14T09:47:49.897Z,34.99
2016-09-14T09:49:00.916Z,34.96
2016-09-14T09:50:11.951Z,34.83
2016-09-14T09:51:22.983Z,34.64
2016-09-14T09:52:34.009Z,34.55
2016-09-14T09:53:45.037Z,34.41
2016-09-14T09:54:56.069Z,34.36
2016-09-14T09:56:07.148Z,34.43
2016-09-14T09:57:18.170Z,34.49
2016-09-14T09:58:29.198Z,34.77
2016-09-14T09:59:40.224Z,34.87
2016-09-14T10:00:51.254Z,35.06
2016-09-14T10:02:02.279Z,35.05
2016-09-14T10:03:13.307Z,35.09
2016-09-14T10:04:24.531Z,35.15
2016-09-14T10:05:35.559Z,35.43
2016-09-14T10:06:46.793Z,35.45
2016-09-14T10:07:57.833Z,35.6
2016-09-14T10:09:08.861Z,35.76
2016-09-14T10:10:19.883Z,35.69
2016-09-14T10:11:31.109Z,35.52
2016-09-14T10:12:42.131Z,35.31
2016-09-14T10:13:53.153Z,35.27
2016-09-14T10:15:04.174Z,35.38
2016-09-14T10:16:15.399Z,35.55
2016-09-14T10:17:26.441Z,35.79
2016-09-14T10:18:37.470Z,35.96
2016-09-14T10:19:48.495Z,36.14
2016-09-14T10:20:59.594Z,36.02
2016-09-14T10:22:10.625Z,35.96
2016-09-14T10:23:21.644Z,36.09
2016-09-14T10:24:32.670Z,36.28
2016-09-14T10:25:43.704Z,36.47
2016-09-14T10:26:54.737Z,36.61
2016-09-14T10:28:05.758Z,36.43
2016-09-14T10:29:16.784Z,36.41
2016-09-14T10:30:27.819Z,36.44
2016-09-14T10:31:38.852Z,36.62
2016-09-14T10:32:49.877Z,36.74
2016-09-14T10:34:00.911Z,36.96
2016-09-14T10:35:11.939Z,36.99
2016-09-14T10:36:22.968Z,37.05
2016-09-14T10:37:34.000Z,37.12
2016-09-14T10:38:45.027Z,37.17
2016-09-14T10:39:56.060Z,37.36
2016-09-14T10:41:07.290Z,37.33
2016-09-14T10:42:18.316Z,37.42
2016-09-14T10:43:29.540Z,37.45
2016-09-14T10:44:40.561Z,37.36
2016-09-14T10:45:51.786Z,37.07
2016-09-14T10:47:02.829Z,36.95
2016-09-14T10:48:13.861Z,36.88
2016-09-14T10:49:24.886Z,36.65
2016-09-14T10:50:35.917Z,36.75
2016-09-14T10:51:46.943Z,36.81
2016-09-14T10:52:57.969Z,37.18
2016-09-14T10:54:08.998Z,37.31
2016-09-14T10:55:20.024Z,37.41
2016-09-14T10:56:31.107Z,37.59
2016-09-14T10:57:42.128Z,37.57
2016-09-14T10:58:53.162Z,37.68
2016-09-14T11:00:04.226Z,37.79
2016-09-14T11:01:15.255Z,37.46
2016-09-14T11:02:26.489Z,37.19
2016-09-14T11:03:37.522Z,37.15
2016-09-14T11:04:48.544Z,37.29
2016-09-14T11:05:59.567Z,37.44
2016-09-14T11:07:10.590Z,37.66
2016-09-14T11:08:21.619Z,37.66
2016-09-14T11:09:32.849Z,37.53
2016-09-14T11:10:44.074Z,37.64
2016-09-14T11:11:55.108Z,37.62
2016-09-14T11:13:06.129Z,37.69
2016-09-14T11:14:17.147Z,37.46
2016-09-14T11:15:28.173Z,37.3
2016-09-14T11:16:39.192Z,37.31
2016-09-14T11:17:50.213Z,37.12
2016-09-14T11:19:01.440Z,36.99
2016-09-14T11:20:12.665Z,36.9
2016-09-14T11:21:23.893Z,36.84
2016-09-14T11:22:34.918Z,36.81
2016-09-14T11:23:45.949Z,36.71
2016-09-14T11:24:56.973Z,36.77
2016-09-14T11:26:08.400Z,36.59
2016-09-14T11:27:19.424Z,36.49
2016-09-14T11:28:30.444Z,36.33
2016-09-14T11:29:41.464Z,36.3
2016-09-14T11:30:52.493Z,36.3
2016-09-14T11:32:03.520Z,36.21
2016-09-14T11:33:14.556Z,36.18
2016-09-14T11:34:25.579Z,35.99
2016-09-14T11:35:36.797Z,35.99
2016-09-14T11:36:47.819Z,36.04
2016-09-14T11:37:58.846Z,36.17
2016-09-14T11:39:09.881Z,36.33
2016-09-14T11:40:20.908Z,36.49
2016-09-14T11:41:31.934Z,36.61
2016-09-14T11:42:42.957Z,36.56
2016-09-14T11:43:53.982Z,36.61
2016-09-14T11:45:05.008Z,36.78
2016-09-14T11:46:16.029Z,36.88
2016-09-14T11:47:27.058Z,36.99
2016-09-14T11:48:38.090Z,37.23
2016-09-14T11:49:49.112Z,37.41
2016-09-14T11:51:00.142Z,37.41
2016-09-14T11:52:11.176Z,37.42
2016-09-14T11:53:22.402Z,37.19
2016-09-14T11:54:33.440Z,37.14
2016-09-14T11:55:44.460Z,37.26
2016-09-14T11:56:55.537Z,37.22
2016-09-14T11:58:06.556Z,37.42
2016-09-14T11:59:17.587Z,37.51
2016-09-14T12:00:28.618Z,37.54
2016-09-14T12:01:39.638Z,37.59
2016-09-14T12:02:50.669Z,37.68
2016-09-14T12:04:01.704Z,37.59
2016-09-14T12:05:12.936Z,37.68
2016-09-14T12:06:23.960Z,37.91
2016-09-14T12:07:34.984Z,37.99
2016-09-14T12:08:46.009Z,37.94
2016-09-14T12:09:57.038Z,37.9
2016-09-14T12:11:08.060Z,37.86
2016-09-14T12:12:19.078Z,37.83
2016-09-14T12:13:30.097Z,37.59
2016-09-14T12:14:41.121Z,37.53
2016-09-14T12:15:52.144Z,37.54
2016-09-14T12:17:03.170Z,37.29
2016-09-14T12:18:14.203Z,37.09
2016-09-14T12:19:25.229Z,36.9
2016-09-14T12:20:36.251Z,36.92
2016-09-14T12:21:47.291Z,36.83
2016-09-14T12:22:58.516Z,36.86
2016-09-14T12:24:09.533Z,36.74
2016-09-14T12:25:20.552Z,36.68
2016-09-14T12:26:31.576Z,36.65
2016-09-14T12:27:42.604Z,36.68
2016-09-14T12:28:53.627Z,36.73
2016-09-14T12:30:04.644Z,36.84
2016-09-14T12:31:15.665Z,36.83
2016-09-14T12:32:26.685Z,36.84
2016-09-14T12:33:38.109Z,36.89
2016-09-14T12:34:49.130Z,36.83
2016-09-14T12:36:00.192Z,36.65
2016-09-14T12:37:11.409Z,36.55
2016-09-14T12:38:22.425Z,36.51
2016-09-14T12:39:33.454Z,36.37
2016-09-14T12:40:44.482Z,36.4
2016-09-14T12:41:55.508Z,36.39
2016-09-14T12:43:06.727Z,36.43
2016-09-14T12:44:17.746Z,36.28
2016-09-14T12:45:28.763Z,36.22
2016-09-14T12:46:39.780Z,36.09
2016-09-14T12:47:50.810Z,35.99
2016-09-14T12:49:01.827Z,35.94
2016-09-14T12:50:12.849Z,35.89
2016-09-14T12:51:23.875Z,35.84
2016-09-14T12:52:34.886Z,35.65
2016-09-14T12:53:45.906Z,35.43
2016-09-14T12:54:56.927Z,35.33
2016-09-14T12:56:08.150Z,35.23
2016-09-14T12:57:19.215Z,35.12
2016-09-14T12:58:30.229Z,34.96
2016-09-14T12:59:41.258Z,34.86
2016-09-14T13:00:52.475Z,34.79
2016-09-14T13:02:03.501Z,34.74
2016-09-14T13:03:14.526Z,34.77
2016-09-14T13:04:25.551Z,34.55
2016-09-14T13:05:36.573Z,34.59
2016-09-14T13:06:47.584Z,34.61
2016-09-14T13:07:58.595Z,34.64
2016-09-14T13:09:09.627Z,34.69
2016-09-14T13:10:20.645Z,34.72
2016-09-14T13:11:31.658Z,34.71
2016-09-14T13:12:42.677Z,34.74
2016-09-14T13:13:53.902Z,34.69
2016-09-14T13:15:05.121Z,34.46
2016-09-14T13:16:16.143Z,34.39
2016-09-14T13:17:27.557Z,34.39
2016-09-14T13:18:38.574Z,34.3
2016-09-14T13:19:49.594Z,34.24
2016-09-14T13:21:00.610Z,34.27
2016-09-14T13:22:12.234Z,34.26
2016-09-14T13:23:23.254Z,34.18
2016-09-14T13:24:34.273Z,34.18
2016-09-14T13:25:45.287Z,34.11
2016-09-14T13:26:56.303Z,34.11
2016-09-14T13:28:07.532Z,34.17
2016-09-14T13:29:18.540Z,34.21
2016-09-14T13:30:29.556Z,34.21
2016-09-14T13:31:40.774Z,34.24
2016-09-14T13:32:51.809Z,34.21
2016-09-14T13:34:02.829Z,34.12
2016-09-14T13:35:13.857Z,34.14
2016-09-14T13:36:24.871Z,34.12
2016-09-14T13:37:36.085Z,34.14
2016-09-14T13:38:47.107Z,34.02
2016-09-14T13:39:58.341Z,34.03
2016-09-14T13:41:09.363Z,33.92
2016-09-14T13:42:20.372Z,33.85
2016-09-14T13:43:31.403Z,33.78
2016-09-14T13:44:42.612Z,33.83
2016-09-14T13:45:53.631Z,33.83
2016-09-14T13:47:04.641Z,33.74
2016-09-14T13:48:15.659Z,33.65
2016-09-14T13:49:26.675Z,33.66
2016-09-14T13:50:37.683Z,33.59
2016-09-14T13:51:48.699Z,33.62
2016-09-14T13:52:59.722Z,33.61
2016-09-14T13:54:10.733Z,33.63
2016-09-14T13:55:21.755Z,33.62
2016-09-14T13:56:32.770Z,33.63
2016-09-14T13:57:43.826Z,33.62
2016-09-14T13:58:55.059Z,33.74
2016-09-14T14:00:06.078Z,33.71
2016-09-14T14:01:17.296Z,33.74
2016-09-14T14:02:28.319Z,33.8
2016-09-14T14:03:39.334Z,33.77
2016-09-14T14:04:50.345Z,33.71
2016-09-14T14:06:01.370Z,33.77
2016-09-14T14:07:12.390Z,33.77
2016-09-14T14:08:23.406Z,33.66
2016-09-14T14:09:34.419Z,33.61
2016-09-14T14:10:45.450Z,33.63
2016-09-14T14:11:56.864Z,33.47
2016-09-14T14:13:07.874Z,33.31
2016-09-14T14:14:18.896Z,33.21
2016-09-14T14:15:30.112Z,33.31
2016-09-14T14:16:41.118Z,33.29
2016-09-14T14:17:52.334Z,33.29
2016-09-14T14:19:03.344Z,33.26
2016-09-14T14:20:14.373Z,33.37
2016-09-14T14:21:25.381Z,33.31
2016-09-14T14:22:36.386Z,33.32
2016-09-14T14:23:47.400Z,33.31
2016-09-14T14:24:58.425Z,33.28
2016-09-14T14:26:09.444Z,33.37
2016-09-14T14:27:20.460Z,33.34
2016-09-14T14:28:31.485Z,33.31
2016-09-14T14:29:42.695Z,33.37
2016-09-14T14:30:53.703Z,33.32
2016-09-14T14:32:04.732Z,33.36
2016-09-14T14:33:15.755Z,33.31
2016-09-14T14:34:26.966Z,33.26
2016-09-14T14:35:37.990Z,33.16
2016-09-14T14:36:49.011Z,32.99
2016-09-14T14:38:00.031Z,32.74
2016-09-14T14:39:11.045Z,32.65
2016-09-14T14:40:22.060Z,32.53
2016-09-14T14:41:33.084Z,32.47
2016-09-14T14:42:44.103Z,32.39
2016-09-14T14:43:55.117Z,32.42
2016-09-14T14:45:06.136Z,32.25
2016-09-14T14:46:17.149Z,32.25
2016-09-14T14:47:28.364Z,32.16
2016-09-14T14:48:39.382Z,32.15
2016-09-14T14:49:50.395Z,32.01
2016-09-14T14:51:01.410Z,31.95
2016-09-14T14:52:12.824Z,31.95
2016-09-14T14:53:23.843Z,31.87
2016-09-14T14:54:34.856Z,31.86
2016-09-14T14:55:45.931Z,31.74
2016-09-14T14:56:56.948Z,31.74
2016-09-14T14:58:08.004Z,31.72
2016-09-14T14:59:19.016Z,31.71
2016-09-14T15:00:30.043Z,31.71
2016-09-14T15:01:41.052Z,31.58
2016-09-14T15:02:52.071Z,31.55
2016-09-14T15:04:03.105Z,31.55
2016-09-14T15:05:14.115Z,31.52
2016-09-14T15:06:25.127Z,31.52
2016-09-14T15:07:36.336Z,31.5
2016-09-14T15:08:47.350Z,31.55
2016-09-14T15:09:58.362Z,31.44
2016-09-14T15:11:09.375Z,31.4
2016-09-14T15:12:20.393Z,31.41
2016-09-14T15:13:31.421Z,31.43
2016-09-14T15:14:42.446Z,31.43
2016-09-14T15:15:53.465Z,31.41
2016-09-14T15:17:04.477Z,31.28
2016-09-14T15:18:15.480Z,31.22